Sigel, Illinois
Current Conditions -  °F | °C
As of 9:35 AM on Thursday 30 Oct 2014 (Local Time) from K1H2 Reporting Station
Clear Clear  
Wind Chill: 44°   Ceiling: Unl
Heat Index: 46°   Visibility: NA
Dew Point: 37°   Wind: 5mph
Humidity: 71%   Direction: 130°SE
Pressure: 30.17"   Gusts: NA
Location:  39.23°N, 88.49°W
Report Text: K1H2 301435Z AUTO 13004KT CLR 08/03 A3017 RMK AO2 T00780028 PWINO
Loading
Personal Weather Stations






























Interactive Weather Map
Tropical Storm Tracking
New forecast layout! Learn more

10-Day Weather Forecast

Advertisements
Track Severe Weather on mobile